Acworth, Georgia
Current Conditions -  °F | °C
As of 7:47 AM on Monday 29 Dec 2014 (Local Time) from KRYY Reporting Station
Haze Haze  
Wind Chill: 52°   Ceiling: 200
Heat Index: 52°   Visibility: 0.75mi
Dew Point: 48°   Wind: 3mph
Humidity: 88%   Direction: 330°NNW
Pressure: 30.09"   Gusts: NA
Location:  34.06°N, 84.68°W
Report Text: KRYY 291247Z 33003KT 3/4SM BR OVC002 11/09 A3009
Loading
Personal Weather Stations






























Interactive Weather Map New forecast layout! Learn more

10-Day Weather Forecast

Advertisements
Track Severe Weather on mobile